sensor_id;sensor_type;location;lat;lon;timestamp;P1;durP1;ratioP1;P2;durP2;ratioP2
65096;SDS011;51686;46.758;4.356;2022-07-29T00:01:50;3.83;;;1.50;;
65096;SDS011;51686;46.758;4.356;2022-07-29T00:04:39;3.60;;;1.73;;
65096;SDS011;51686;46.758;4.356;2022-07-29T00:07:37;3.88;;;1.70;;
65096;SDS011;51686;46.758;4.356;2022-07-29T00:10:45;3.53;;;1.70;;
65096;SDS011;51686;46.758;4.356;2022-07-29T00:13:39;4.68;;;1.80;;
65096;SDS011;51686;46.758;4.356;2022-07-29T00:16:44;4.00;;;1.75;;
65096;SDS011;51686;46.758;4.356;2022-07-29T00:19:50;3.70;;;1.70;;
65096;SDS011;51686;46.758;4.356;2022-07-29T00:22:42;4.30;;;1.73;;
65096;SDS011;51686;46.758;4.356;2022-07-29T00:25:40;3.70;;;1.50;;
65096;SDS011;51686;46.758;4.356;2022-07-29T00:28:32;2.72;;;1.60;;
65096;SDS011;51686;46.758;4.356;2022-07-29T00:31:26;3.25;;;1.70;;
65096;SDS011;51686;46.758;4.356;2022-07-29T00:34:27;3.28;;;1.70;;
65096;SDS011;51686;46.758;4.356;2022-07-29T00:37:55;3.70;;;1.58;;
65096;SDS011;51686;46.758;4.356;2022-07-29T00:43:48;3.05;;;1.50;;
65096;SDS011;51686;46.758;4.356;2022-07-29T00:46:54;3.80;;;1.58;;
65096;SDS011;51686;46.758;4.356;2022-07-29T00:53:02;4.45;;;1.77;;
65096;SDS011;51686;46.758;4.356;2022-07-29T00:55:56;3.05;;;1.52;;
65096;SDS011;51686;46.758;4.356;2022-07-29T00:58:52;3.90;;;1.80;;
65096;SDS011;51686;46.758;4.356;2022-07-29T01:01:46;3.42;;;1.50;;
65096;SDS011;51686;46.758;4.356;2022-07-29T01:05:14;4.50;;;1.88;;
65096;SDS011;51686;46.758;4.356;2022-07-29T01:08:30;3.35;;;1.70;;
65096;SDS011;51686;46.758;4.356;2022-07-29T01:11:37;4.95;;;1.85;;
65096;SDS011;51686;46.758;4.356;2022-07-29T01:14:38;5.10;;;1.88;;
65096;SDS011;51686;46.758;4.356;2022-07-29T01:29:49;3.60;;;1.52;;
65096;SDS011;51686;46.758;4.356;2022-07-29T01:32:52;3.30;;;1.75;;
65096;SDS011;51686;46.758;4.356;2022-07-29T01:35:43;3.80;;;1.70;;
65096;SDS011;51686;46.758;4.356;2022-07-29T01:38:45;3.97;;;1.77;;
65096;SDS011;51686;46.758;4.356;2022-07-29T01:41:42;3.40;;;1.60;;
65096;SDS011;51686;46.758;4.356;2022-07-29T01:45:15;2.90;;;1.50;;
65096;SDS011;51686;46.758;4.356;2022-07-29T01:51:05;3.70;;;1.80;;
65096;SDS011;51686;46.758;4.356;2022-07-29T01:57:15;4.45;;;1.92;;
65096;SDS011;51686;46.758;4.356;2022-07-29T02:00:08;3.92;;;1.80;;
65096;SDS011;51686;46.758;4.356;2022-07-29T02:02:55;4.90;;;1.90;;
65096;SDS011;51686;46.758;4.356;2022-07-29T02:05:47;4.25;;;1.98;;
65096;SDS011;51686;46.758;4.356;2022-07-29T02:08:37;4.28;;;1.98;;
65096;SDS011;51686;46.758;4.356;2022-07-29T02:11:25;4.80;;;1.88;;
65096;SDS011;51686;46.758;4.356;2022-07-29T02:14:12;4.63;;;1.80;;
65096;SDS011;51686;46.758;4.356;2022-07-29T02:17:02;4.57;;;1.80;;
65096;SDS011;51686;46.758;4.356;2022-07-29T02:19:49;3.05;;;1.60;;
65096;SDS011;51686;46.758;4.356;2022-07-29T02:22:37;4.53;;;1.98;;
65096;SDS011;51686;46.758;4.356;2022-07-29T02:25:26;3.50;;;1.73;;
65096;SDS011;51686;46.758;4.356;2022-07-29T02:28:24;5.68;;;2.03;;
65096;SDS011;51686;46.758;4.356;2022-07-29T02:31:12;4.22;;;1.88;;
65096;SDS011;51686;46.758;4.356;2022-07-29T02:34:26;4.80;;;2.10;;
65096;SDS011;51686;46.758;4.356;2022-07-29T02:37:16;4.18;;;1.85;;
65096;SDS011;51686;46.758;4.356;2022-07-29T02:40:05;4.30;;;1.90;;
65096;SDS011;51686;46.758;4.356;2022-07-29T02:43:01;3.13;;;1.67;;
65096;SDS011;51686;46.758;4.356;2022-07-29T02:45:56;2.55;;;1.63;;
65096;SDS011;51686;46.758;4.356;2022-07-29T02:49:18;4.75;;;1.75;;
65096;SDS011;51686;46.758;4.356;2022-07-29T02:52:01;3.40;;;1.80;;
65096;SDS011;51686;46.758;4.356;2022-07-29T02:58:40;3.83;;;1.83;;
65096;SDS011;51686;46.758;4.356;2022-07-29T03:01:42;4.35;;;1.80;;
65096;SDS011;51686;46.758;4.356;2022-07-29T03:04:38;4.22;;;1.95;;
65096;SDS011;51686;46.758;4.356;2022-07-29T03:07:34;4.50;;;2.17;;
65096;SDS011;51686;46.758;4.356;2022-07-29T03:10:32;4.50;;;1.95;;
65096;SDS011;51686;46.758;4.356;2022-07-29T03:13:33;4.47;;;1.90;;
65096;SDS011;51686;46.758;4.356;2022-07-29T03:16:33;4.60;;;2.10;;
65096;SDS011;51686;46.758;4.356;2022-07-29T03:19:26;4.00;;;1.98;;
65096;SDS011;51686;46.758;4.356;2022-07-29T03:22:14;4.28;;;2.08;;
65096;SDS011;51686;46.758;4.356;2022-07-29T03:25:08;5.18;;;1.85;;
65096;SDS011;51686;46.758;4.356;2022-07-29T03:27:58;4.25;;;1.90;;
65096;SDS011;51686;46.758;4.356;2022-07-29T03:30:46;4.85;;;2.00;;
65096;SDS011;51686;46.758;4.356;2022-07-29T03:33:33;5.17;;;2.20;;
65096;SDS011;51686;46.758;4.356;2022-07-29T03:36:20;4.78;;;2.10;;
65096;SDS011;51686;46.758;4.356;2022-07-29T03:39:07;4.65;;;2.20;;
65096;SDS011;51686;46.758;4.356;2022-07-29T03:41:55;5.00;;;1.97;;
65096;SDS011;51686;46.758;4.356;2022-07-29T03:44:42;3.72;;;1.83;;
65096;SDS011;51686;46.758;4.356;2022-07-29T03:47:31;4.90;;;2.00;;
65096;SDS011;51686;46.758;4.356;2022-07-29T03:50:39;3.80;;;1.83;;
65096;SDS011;51686;46.758;4.356;2022-07-29T03:53:26;5.25;;;2.10;;
65096;SDS011;51686;46.758;4.356;2022-07-29T03:56:15;4.45;;;1.98;;
65096;SDS011;51686;46.758;4.356;2022-07-29T03:59:02;3.80;;;1.98;;
65096;SDS011;51686;46.758;4.356;2022-07-29T04:01:50;5.03;;;2.03;;
65096;SDS011;51686;46.758;4.356;2022-07-29T04:04:37;3.85;;;1.92;;
65096;SDS011;51686;46.758;4.356;2022-07-29T04:07:24;4.53;;;2.10;;
65096;SDS011;51686;46.758;4.356;2022-07-29T04:10:11;4.88;;;2.00;;
65096;SDS011;51686;46.758;4.356;2022-07-29T04:13:18;4.88;;;2.20;;
65096;SDS011;51686;46.758;4.356;2022-07-29T04:16:05;3.65;;;1.92;;
65096;SDS011;51686;46.758;4.356;2022-07-29T04:18:52;4.32;;;2.00;;
65096;SDS011;51686;46.758;4.356;2022-07-29T04:21:39;3.80;;;1.95;;
65096;SDS011;51686;46.758;4.356;2022-07-29T04:24:27;4.30;;;2.15;;
65096;SDS011;51686;46.758;4.356;2022-07-29T04:27:19;3.70;;;1.73;;
65096;SDS011;51686;46.758;4.356;2022-07-29T04:30:14;4.03;;;1.98;;
65096;SDS011;51686;46.758;4.356;2022-07-29T04:33:06;2.88;;;1.60;;
65096;SDS011;51686;46.758;4.356;2022-07-29T04:35:56;4.57;;;1.97;;
65096;SDS011;51686;46.758;4.356;2022-07-29T04:38:44;5.40;;;2.13;;
65096;SDS011;51686;46.758;4.356;2022-07-29T04:41:31;5.30;;;2.10;;
65096;SDS011;51686;46.758;4.356;2022-07-29T04:47:07;4.55;;;2.00;;
65096;SDS011;51686;46.758;4.356;2022-07-29T04:49:54;5.43;;;2.00;;
65096;SDS011;51686;46.758;4.356;2022-07-29T04:52:42;4.25;;;1.70;;
65096;SDS011;51686;46.758;4.356;2022-07-29T04:55:29;4.25;;;2.00;;
65096;SDS011;51686;46.758;4.356;2022-07-29T04:58:16;4.25;;;1.95;;
65096;SDS011;51686;46.758;4.356;2022-07-29T05:01:03;4.15;;;2.13;;
65096;SDS011;51686;46.758;4.356;2022-07-29T05:03:50;4.68;;;2.10;;
65096;SDS011;51686;46.758;4.356;2022-07-29T05:06:45;6.03;;;2.40;;
65096;SDS011;51686;46.758;4.356;2022-07-29T05:09:32;4.75;;;2.13;;
65096;SDS011;51686;46.758;4.356;2022-07-29T05:12:19;4.90;;;2.20;;
65096;SDS011;51686;46.758;4.356;2022-07-29T05:15:06;4.15;;;2.05;;
65096;SDS011;51686;46.758;4.356;2022-07-29T05:17:53;5.30;;;2.22;;
65096;SDS011;51686;46.758;4.356;2022-07-29T05:20:40;5.65;;;2.40;;
65096;SDS011;51686;46.758;4.356;2022-07-29T05:23:27;4.15;;;2.10;;
65096;SDS011;51686;46.758;4.356;2022-07-29T05:26:14;4.93;;;2.10;;
65096;SDS011;51686;46.758;4.356;2022-07-29T05:29:00;5.45;;;2.30;;
65096;SDS011;51686;46.758;4.356;2022-07-29T05:31:47;5.40;;;2.22;;
65096;SDS011;51686;46.758;4.356;2022-07-29T05:34:34;4.75;;;2.22;;
65096;SDS011;51686;46.758;4.356;2022-07-29T05:37:21;5.47;;;2.40;;
65096;SDS011;51686;46.758;4.356;2022-07-29T05:40:08;4.88;;;2.30;;
65096;SDS011;51686;46.758;4.356;2022-07-29T05:42:55;4.55;;;2.28;;
65096;SDS011;51686;46.758;4.356;2022-07-29T05:45:42;4.85;;;2.10;;
65096;SDS011;51686;46.758;4.356;2022-07-29T05:48:35;5.30;;;2.33;;
65096;SDS011;51686;46.758;4.356;2022-07-29T05:51:22;5.50;;;2.20;;
65096;SDS011;51686;46.758;4.356;2022-07-29T05:54:09;5.22;;;2.17;;
65096;SDS011;51686;46.758;4.356;2022-07-29T05:56:57;5.00;;;2.35;;
65096;SDS011;51686;46.758;4.356;2022-07-29T05:59:46;6.47;;;2.20;;
65096;SDS011;51686;46.758;4.356;2022-07-29T06:02:33;5.50;;;2.30;;
65096;SDS011;51686;46.758;4.356;2022-07-29T06:05:20;6.10;;;2.42;;
65096;SDS011;51686;46.758;4.356;2022-07-29T06:08:07;6.50;;;2.22;;
65096;SDS011;51686;46.758;4.356;2022-07-29T06:10:54;6.32;;;2.50;;
65096;SDS011;51686;46.758;4.356;2022-07-29T06:13:41;5.50;;;2.20;;
65096;SDS011;51686;46.758;4.356;2022-07-29T06:16:28;5.03;;;2.10;;
65096;SDS011;51686;46.758;4.356;2022-07-29T06:19:16;5.77;;;2.20;;
65096;SDS011;51686;46.758;4.356;2022-07-29T06:22:03;6.25;;;2.40;;
65096;SDS011;51686;46.758;4.356;2022-07-29T06:24:50;5.93;;;2.30;;
65096;SDS011;51686;46.758;4.356;2022-07-29T06:27:37;5.25;;;2.30;;
65096;SDS011;51686;46.758;4.356;2022-07-29T06:30:24;4.65;;;2.10;;
65096;SDS011;51686;46.758;4.356;2022-07-29T06:33:15;5.65;;;2.28;;
65096;SDS011;51686;46.758;4.356;2022-07-29T06:36:04;5.07;;;2.10;;
65096;SDS011;51686;46.758;4.356;2022-07-29T06:38:52;7.68;;;2.65;;
65096;SDS011;51686;46.758;4.356;2022-07-29T06:41:39;5.72;;;2.35;;
65096;SDS011;51686;46.758;4.356;2022-07-29T06:44:26;5.32;;;2.28;;
65096;SDS011;51686;46.758;4.356;2022-07-29T06:47:13;5.70;;;2.35;;
65096;SDS011;51686;46.758;4.356;2022-07-29T06:50:00;5.95;;;2.38;;
65096;SDS011;51686;46.758;4.356;2022-07-29T06:52:47;7.45;;;2.60;;
65096;SDS011;51686;46.758;4.356;2022-07-29T06:55:34;4.43;;;2.15;;
65096;SDS011;51686;46.758;4.356;2022-07-29T07:01:10;4.57;;;2.10;;
65096;SDS011;51686;46.758;4.356;2022-07-29T07:03:59;6.13;;;2.47;;
65096;SDS011;51686;46.758;4.356;2022-07-29T07:06:46;6.60;;;2.47;;
65096;SDS011;51686;46.758;4.356;2022-07-29T07:09:32;5.50;;;2.22;;
65096;SDS011;51686;46.758;4.356;2022-07-29T07:12:26;6.55;;;2.50;;
65096;SDS011;51686;46.758;4.356;2022-07-29T07:15:13;6.05;;;2.50;;
65096;SDS011;51686;46.758;4.356;2022-07-29T07:18:00;5.25;;;2.20;;
65096;SDS011;51686;46.758;4.356;2022-07-29T07:20:46;6.72;;;2.30;;
65096;SDS011;51686;46.758;4.356;2022-07-29T07:23:34;4.40;;;2.05;;
65096;SDS011;51686;46.758;4.356;2022-07-29T07:26:20;4.88;;;2.20;;
65096;SDS011;51686;46.758;4.356;2022-07-29T07:29:07;6.40;;;2.40;;
65096;SDS011;51686;46.758;4.356;2022-07-29T07:31:54;5.18;;;2.22;;
65096;SDS011;51686;46.758;4.356;2022-07-29T07:34:46;5.40;;;2.30;;
65096;SDS011;51686;46.758;4.356;2022-07-29T07:37:33;5.78;;;2.30;;
65096;SDS011;51686;46.758;4.356;2022-07-29T07:40:21;4.82;;;2.08;;
65096;SDS011;51686;46.758;4.356;2022-07-29T07:43:08;4.25;;;2.15;;
65096;SDS011;51686;46.758;4.356;2022-07-29T07:45:54;5.60;;;2.47;;
65096;SDS011;51686;46.758;4.356;2022-07-29T07:48:41;6.15;;;2.63;;
65096;SDS011;51686;46.758;4.356;2022-07-29T07:51:28;8.80;;;2.47;;
65096;SDS011;51686;46.758;4.356;2022-07-29T07:54:15;5.57;;;2.40;;
65096;SDS011;51686;46.758;4.356;2022-07-29T07:57:03;5.20;;;2.40;;
65096;SDS011;51686;46.758;4.356;2022-07-29T07:59:50;6.38;;;2.45;;
65096;SDS011;51686;46.758;4.356;2022-07-29T08:02:37;6.63;;;2.33;;
65096;SDS011;51686;46.758;4.356;2022-07-29T08:05:24;6.10;;;2.33;;
65096;SDS011;51686;46.758;4.356;2022-07-29T08:08:11;5.88;;;2.30;;
65096;SDS011;51686;46.758;4.356;2022-07-29T08:10:58;6.07;;;2.40;;
65096;SDS011;51686;46.758;4.356;2022-07-29T08:13:50;5.60;;;2.60;;
65096;SDS011;51686;46.758;4.356;2022-07-29T08:16:38;5.60;;;2.60;;
65096;SDS011;51686;46.758;4.356;2022-07-29T08:19:26;5.32;;;2.70;;
65096;SDS011;51686;46.758;4.356;2022-07-29T08:22:13;8.20;;;3.15;;
65096;SDS011;51686;46.758;4.356;2022-07-29T08:25:00;6.05;;;2.80;;
65096;SDS011;51686;46.758;4.356;2022-07-29T08:27:47;6.50;;;2.67;;
65096;SDS011;51686;46.758;4.356;2022-07-29T08:30:34;5.43;;;2.60;;
65096;SDS011;51686;46.758;4.356;2022-07-29T08:33:21;5.43;;;2.50;;
65096;SDS011;51686;46.758;4.356;2022-07-29T08:36:08;5.95;;;2.70;;
65096;SDS011;51686;46.758;4.356;2022-07-29T08:38:55;6.38;;;2.75;;
65096;SDS011;51686;46.758;4.356;2022-07-29T08:41:42;6.57;;;2.55;;
65096;SDS011;51686;46.758;4.356;2022-07-29T08:44:44;6.55;;;2.80;;
65096;SDS011;51686;46.758;4.356;2022-07-29T08:47:31;6.28;;;2.60;;
65096;SDS011;51686;46.758;4.356;2022-07-29T08:50:17;6.47;;;2.60;;
65096;SDS011;51686;46.758;4.356;2022-07-29T08:53:04;5.68;;;2.60;;
65096;SDS011;51686;46.758;4.356;2022-07-29T08:55:53;6.93;;;2.92;;
65096;SDS011;51686;46.758;4.356;2022-07-29T08:58:40;6.72;;;3.00;;
65096;SDS011;51686;46.758;4.356;2022-07-29T09:01:29;7.10;;;3.03;;
65096;SDS011;51686;46.758;4.356;2022-07-29T09:04:22;6.65;;;2.80;;
65096;SDS011;51686;46.758;4.356;2022-07-29T09:07:10;7.05;;;3.00;;
65096;SDS011;51686;46.758;4.356;2022-07-29T09:10:01;5.53;;;2.63;;
65096;SDS011;51686;46.758;4.356;2022-07-29T09:12:48;7.18;;;3.10;;
65096;SDS011;51686;46.758;4.356;2022-07-29T09:15:35;7.32;;;2.97;;
65096;SDS011;51686;46.758;4.356;2022-07-29T09:18:38;6.88;;;2.85;;
65096;SDS011;51686;46.758;4.356;2022-07-29T09:21:27;7.38;;;3.03;;
65096;SDS011;51686;46.758;4.356;2022-07-29T09:27:33;6.47;;;2.70;;
65096;SDS011;51686;46.758;4.356;2022-07-29T09:30:20;5.57;;;2.58;;
65096;SDS011;51686;46.758;4.356;2022-07-29T09:33:17;6.85;;;2.85;;
65096;SDS011;51686;46.758;4.356;2022-07-29T09:36:05;7.63;;;3.03;;
65096;SDS011;51686;46.758;4.356;2022-07-29T09:38:59;5.88;;;2.60;;
65096;SDS011;51686;46.758;4.356;2022-07-29T09:41:47;6.13;;;2.90;;
65096;SDS011;51686;46.758;4.356;2022-07-29T09:44:43;6.32;;;2.80;;
65096;SDS011;51686;46.758;4.356;2022-07-29T09:47:41;6.07;;;2.70;;
65096;SDS011;51686;46.758;4.356;2022-07-29T09:56:19;5.43;;;2.63;;
65096;SDS011;51686;46.758;4.356;2022-07-29T09:59:06;6.93;;;3.25;;
65096;SDS011;51686;46.758;4.356;2022-07-29T10:01:53;6.77;;;3.07;;
65096;SDS011;51686;46.758;4.356;2022-07-29T10:04:41;5.88;;;2.88;;
65096;SDS011;51686;46.758;4.356;2022-07-29T10:07:48;6.10;;;2.88;;
65096;SDS011;51686;46.758;4.356;2022-07-29T10:10:40;5.97;;;2.70;;
65096;SDS011;51686;46.758;4.356;2022-07-29T10:13:28;7.35;;;2.95;;
65096;SDS011;51686;46.758;4.356;2022-07-29T10:16:15;6.53;;;2.88;;
65096;SDS011;51686;46.758;4.356;2022-07-29T10:19:03;6.35;;;2.88;;
65096;SDS011;51686;46.758;4.356;2022-07-29T10:21:51;5.93;;;2.70;;
65096;SDS011;51686;46.758;4.356;2022-07-29T10:24:43;6.80;;;2.95;;
65096;SDS011;51686;46.758;4.356;2022-07-29T10:27:34;6.60;;;2.88;;
65096;SDS011;51686;46.758;4.356;2022-07-29T10:33:24;4.37;;;2.10;;
65096;SDS011;51686;46.758;4.356;2022-07-29T10:36:40;6.65;;;2.78;;
65096;SDS011;51686;46.758;4.356;2022-07-29T10:42:48;6.65;;;2.95;;
65096;SDS011;51686;46.758;4.356;2022-07-29T10:45:36;5.47;;;2.80;;
65096;SDS011;51686;46.758;4.356;2022-07-29T10:48:26;5.55;;;2.60;;
65096;SDS011;51686;46.758;4.356;2022-07-29T10:51:13;6.00;;;2.80;;
65096;SDS011;51686;46.758;4.356;2022-07-29T10:54:06;6.10;;;2.50;;
65096;SDS011;51686;46.758;4.356;2022-07-29T11:00:32;5.63;;;2.58;;
65096;SDS011;51686;46.758;4.356;2022-07-29T11:03:42;5.65;;;2.70;;
65096;SDS011;51686;46.758;4.356;2022-07-29T11:12:59;5.68;;;2.50;;
65096;SDS011;51686;46.758;4.356;2022-07-29T11:15:58;6.22;;;2.75;;
65096;SDS011;51686;46.758;4.356;2022-07-29T11:21:59;4.93;;;2.50;;
65096;SDS011;51686;46.758;4.356;2022-07-29T11:24:46;6.18;;;3.00;;
65096;SDS011;51686;46.758;4.356;2022-07-29T11:28:10;5.63;;;2.42;;
65096;SDS011;51686;46.758;4.356;2022-07-29T11:31:08;5.88;;;2.83;;
65096;SDS011;51686;46.758;4.356;2022-07-29T11:33:56;6.47;;;2.85;;
65096;SDS011;51686;46.758;4.356;2022-07-29T11:42:48;5.78;;;2.63;;
65096;SDS011;51686;46.758;4.356;2022-07-29T11:45:55;5.45;;;2.60;;
65096;SDS011;51686;46.758;4.356;2022-07-29T11:48:45;5.28;;;2.60;;
65096;SDS011;51686;46.758;4.356;2022-07-29T11:51:37;5.53;;;2.63;;
65096;SDS011;51686;46.758;4.356;2022-07-29T11:54:37;6.18;;;2.90;;
65096;SDS011;51686;46.758;4.356;2022-07-29T11:57:48;5.43;;;2.78;;
65096;SDS011;51686;46.758;4.356;2022-07-29T12:00:56;6.13;;;2.67;;
65096;SDS011;51686;46.758;4.356;2022-07-29T12:03:50;5.65;;;2.55;;
65096;SDS011;51686;46.758;4.356;2022-07-29T12:06:52;5.38;;;2.65;;
65096;SDS011;51686;46.758;4.356;2022-07-29T12:09:40;5.97;;;2.42;;
65096;SDS011;51686;46.758;4.356;2022-07-29T12:12:37;5.97;;;2.40;;
65096;SDS011;51686;46.758;4.356;2022-07-29T12:15:25;6.13;;;2.65;;
65096;SDS011;51686;46.758;4.356;2022-07-29T12:18:31;5.40;;;2.67;;
65096;SDS011;51686;46.758;4.356;2022-07-29T12:21:18;5.65;;;2.65;;
65096;SDS011;51686;46.758;4.356;2022-07-29T12:24:11;5.00;;;2.30;;
65096;SDS011;51686;46.758;4.356;2022-07-29T12:26:59;6.88;;;2.60;;
65096;SDS011;51686;46.758;4.356;2022-07-29T12:29:57;4.95;;;2.38;;
65096;SDS011;51686;46.758;4.356;2022-07-29T12:32:49;5.97;;;2.50;;
65096;SDS011;51686;46.758;4.356;2022-07-29T12:35:41;4.68;;;2.33;;
65096;SDS011;51686;46.758;4.356;2022-07-29T12:38:29;5.78;;;2.45;;
65096;SDS011;51686;46.758;4.356;2022-07-29T12:41:16;4.45;;;2.13;;
65096;SDS011;51686;46.758;4.356;2022-07-29T12:44:03;5.25;;;2.15;;
65096;SDS011;51686;46.758;4.356;2022-07-29T12:47:03;5.47;;;2.40;;
65096;SDS011;51686;46.758;4.356;2022-07-29T12:49:50;4.00;;;2.05;;
65096;SDS011;51686;46.758;4.356;2022-07-29T12:52:39;5.60;;;2.35;;
65096;SDS011;51686;46.758;4.356;2022-07-29T12:58:37;4.28;;;2.03;;
65096;SDS011;51686;46.758;4.356;2022-07-29T13:01:25;4.60;;;2.10;;
65096;SDS011;51686;46.758;4.356;2022-07-29T13:04:26;3.42;;;1.80;;
65096;SDS011;51686;46.758;4.356;2022-07-29T13:07:17;4.03;;;2.00;;
65096;SDS011;51686;46.758;4.356;2022-07-29T13:10:35;4.85;;;2.03;;
65096;SDS011;51686;46.758;4.356;2022-07-29T13:13:21;5.78;;;2.33;;
65096;SDS011;51686;46.758;4.356;2022-07-29T13:16:08;4.95;;;2.15;;
65096;SDS011;51686;46.758;4.356;2022-07-29T13:19:03;5.55;;;2.03;;
65096;SDS011;51686;46.758;4.356;2022-07-29T13:21:54;4.57;;;1.95;;
65096;SDS011;51686;46.758;4.356;2022-07-29T13:24:45;3.85;;;1.90;;
65096;SDS011;51686;46.758;4.356;2022-07-29T13:27:33;4.40;;;2.03;;
65096;SDS011;51686;46.758;4.356;2022-07-29T13:30:23;5.05;;;2.20;;
65096;SDS011;51686;46.758;4.356;2022-07-29T13:33:10;5.23;;;2.07;;
65096;SDS011;51686;46.758;4.356;2022-07-29T13:35:57;4.80;;;2.00;;
65096;SDS011;51686;46.758;4.356;2022-07-29T13:38:44;4.60;;;2.20;;
65096;SDS011;51686;46.758;4.356;2022-07-29T13:41:31;4.40;;;1.90;;
65096;SDS011;51686;46.758;4.356;2022-07-29T13:44:17;3.20;;;1.98;;
65096;SDS011;51686;46.758;4.356;2022-07-29T13:47:05;5.72;;;2.30;;
65096;SDS011;51686;46.758;4.356;2022-07-29T13:49:52;4.82;;;2.20;;
65096;SDS011;51686;46.758;4.356;2022-07-29T13:52:39;3.28;;;1.83;;
65096;SDS011;51686;46.758;4.356;2022-07-29T13:55:26;3.97;;;2.10;;
65096;SDS011;51686;46.758;4.356;2022-07-29T13:58:13;4.72;;;2.20;;
65096;SDS011;51686;46.758;4.356;2022-07-29T14:01:00;4.70;;;2.10;;
65096;SDS011;51686;46.758;4.356;2022-07-29T14:03:47;5.22;;;2.10;;
65096;SDS011;51686;46.758;4.356;2022-07-29T14:06:34;5.15;;;2.25;;
65096;SDS011;51686;46.758;4.356;2022-07-29T14:09:21;4.57;;;1.98;;
65096;SDS011;51686;46.758;4.356;2022-07-29T14:12:08;4.07;;;1.95;;
65096;SDS011;51686;46.758;4.356;2022-07-29T14:14:55;4.00;;;2.00;;
65096;SDS011;51686;46.758;4.356;2022-07-29T14:17:42;3.97;;;1.95;;
65096;SDS011;51686;46.758;4.356;2022-07-29T14:20:29;4.47;;;2.10;;
65096;SDS011;51686;46.758;4.356;2022-07-29T14:23:16;4.97;;;2.10;;
65096;SDS011;51686;46.758;4.356;2022-07-29T14:26:05;5.68;;;2.05;;
65096;SDS011;51686;46.758;4.356;2022-07-29T14:29:00;4.40;;;2.10;;
65096;SDS011;51686;46.758;4.356;2022-07-29T14:31:47;4.35;;;1.90;;
65096;SDS011;51686;46.758;4.356;2022-07-29T14:34:35;5.00;;;2.08;;
65096;SDS011;51686;46.758;4.356;2022-07-29T14:37:22;4.07;;;1.95;;
65096;SDS011;51686;46.758;4.356;2022-07-29T14:40:11;4.68;;;2.13;;
65096;SDS011;51686;46.758;4.356;2022-07-29T14:42:58;4.38;;;1.95;;
65096;SDS011;51686;46.758;4.356;2022-07-29T14:45:45;3.80;;;1.80;;
65096;SDS011;51686;46.758;4.356;2022-07-29T14:48:32;4.07;;;1.98;;
65096;SDS011;51686;46.758;4.356;2022-07-29T14:51:19;4.90;;;1.95;;
65096;SDS011;51686;46.758;4.356;2022-07-29T14:54:06;4.40;;;2.00;;
65096;SDS011;51686;46.758;4.356;2022-07-29T14:56:52;4.15;;;1.70;;
65096;SDS011;51686;46.758;4.356;2022-07-29T14:59:43;3.80;;;1.70;;
65096;SDS011;51686;46.758;4.356;2022-07-29T15:02:29;3.58;;;1.75;;
65096;SDS011;51686;46.758;4.356;2022-07-29T15:05:36;3.95;;;1.80;;
65096;SDS011;51686;46.758;4.356;2022-07-29T15:08:23;3.55;;;1.80;;
65096;SDS011;51686;46.758;4.356;2022-07-29T15:11:11;4.03;;;1.80;;
65096;SDS011;51686;46.758;4.356;2022-07-29T15:13:58;3.15;;;1.60;;
65096;SDS011;51686;46.758;4.356;2022-07-29T15:16:45;3.92;;;1.80;;
65096;SDS011;51686;46.758;4.356;2022-07-29T15:19:33;2.55;;;1.50;;
65096;SDS011;51686;46.758;4.356;2022-07-29T15:22:20;3.15;;;1.70;;
65096;SDS011;51686;46.758;4.356;2022-07-29T15:25:07;3.35;;;1.60;;
65096;SDS011;51686;46.758;4.356;2022-07-29T15:27:54;4.43;;;1.60;;
65096;SDS011;51686;46.758;4.356;2022-07-29T15:30:47;3.88;;;1.63;;
65096;SDS011;51686;46.758;4.356;2022-07-29T15:33:34;3.05;;;1.70;;
65096;SDS011;51686;46.758;4.356;2022-07-29T15:36:20;4.32;;;1.67;;
65096;SDS011;51686;46.758;4.356;2022-07-29T15:39:27;3.22;;;1.60;;
65096;SDS011;51686;46.758;4.356;2022-07-29T15:42:14;3.63;;;1.60;;
65096;SDS011;51686;46.758;4.356;2022-07-29T15:45:04;2.70;;;1.50;;
65096;SDS011;51686;46.758;4.356;2022-07-29T15:47:51;4.45;;;1.70;;
65096;SDS011;51686;46.758;4.356;2022-07-29T15:50:38;4.20;;;1.75;;
65096;SDS011;51686;46.758;4.356;2022-07-29T15:53:25;3.95;;;1.80;;
65096;SDS011;51686;46.758;4.356;2022-07-29T15:56:12;3.90;;;1.70;;
65096;SDS011;51686;46.758;4.356;2022-07-29T15:58:59;3.67;;;1.58;;
65096;SDS011;51686;46.758;4.356;2022-07-29T16:01:46;4.13;;;1.70;;
65096;SDS011;51686;46.758;4.356;2022-07-29T16:04:33;3.30;;;1.55;;
65096;SDS011;51686;46.758;4.356;2022-07-29T16:07:20;3.90;;;1.63;;
65096;SDS011;51686;46.758;4.356;2022-07-29T16:10:07;3.65;;;1.65;;
65096;SDS011;51686;46.758;4.356;2022-07-29T16:12:54;3.92;;;1.60;;
65096;SDS011;51686;46.758;4.356;2022-07-29T16:15:41;3.72;;;1.63;;
65096;SDS011;51686;46.758;4.356;2022-07-29T16:18:28;3.65;;;1.65;;
65096;SDS011;51686;46.758;4.356;2022-07-29T16:21:16;4.25;;;1.80;;
65096;SDS011;51686;46.758;4.356;2022-07-29T16:24:03;3.33;;;1.55;;
65096;SDS011;51686;46.758;4.356;2022-07-29T16:26:51;4.88;;;1.70;;
65096;SDS011;51686;46.758;4.356;2022-07-29T16:29:38;3.00;;;1.50;;
65096;SDS011;51686;46.758;4.356;2022-07-29T16:32:25;4.07;;;1.80;;
65096;SDS011;51686;46.758;4.356;2022-07-29T16:35:12;4.63;;;1.90;;
65096;SDS011;51686;46.758;4.356;2022-07-29T16:37:58;5.03;;;2.10;;
65096;SDS011;51686;46.758;4.356;2022-07-29T16:40:45;4.03;;;1.95;;
65096;SDS011;51686;46.758;4.356;2022-07-29T16:43:32;5.03;;;1.90;;
65096;SDS011;51686;46.758;4.356;2022-07-29T16:46:19;4.88;;;1.98;;
65096;SDS011;51686;46.758;4.356;2022-07-29T16:49:09;4.55;;;1.77;;
65096;SDS011;51686;46.758;4.356;2022-07-29T16:51:56;3.47;;;1.83;;
65096;SDS011;51686;46.758;4.356;2022-07-29T16:57:31;3.50;;;1.73;;
65096;SDS011;51686;46.758;4.356;2022-07-29T17:00:18;4.63;;;2.08;;
65096;SDS011;51686;46.758;4.356;2022-07-29T17:03:06;4.10;;;2.10;;
65096;SDS011;51686;46.758;4.356;2022-07-29T17:05:53;6.55;;;2.30;;
65096;SDS011;51686;46.758;4.356;2022-07-29T17:08:40;6.18;;;2.33;;
65096;SDS011;51686;46.758;4.356;2022-07-29T17:11:27;5.38;;;2.28;;
65096;SDS011;51686;46.758;4.356;2022-07-29T17:14:34;5.03;;;2.20;;
65096;SDS011;51686;46.758;4.356;2022-07-29T17:17:20;3.78;;;1.90;;
65096;SDS011;51686;46.758;4.356;2022-07-29T17:20:27;6.25;;;2.42;;
65096;SDS011;51686;46.758;4.356;2022-07-29T17:23:14;4.43;;;2.13;;
65096;SDS011;51686;46.758;4.356;2022-07-29T17:26:01;5.00;;;2.20;;
65096;SDS011;51686;46.758;4.356;2022-07-29T17:28:48;5.40;;;2.20;;
65096;SDS011;51686;46.758;4.356;2022-07-29T17:31:35;5.47;;;2.10;;
65096;SDS011;51686;46.758;4.356;2022-07-29T17:34:23;5.43;;;2.17;;
65096;SDS011;51686;46.758;4.356;2022-07-29T17:37:10;5.85;;;2.30;;
65096;SDS011;51686;46.758;4.356;2022-07-29T17:39:57;4.82;;;2.10;;
65096;SDS011;51686;46.758;4.356;2022-07-29T17:42:46;4.97;;;2.35;;
65096;SDS011;51686;46.758;4.356;2022-07-29T17:45:33;5.45;;;2.40;;
65096;SDS011;51686;46.758;4.356;2022-07-29T17:48:36;5.38;;;2.30;;
65096;SDS011;51686;46.758;4.356;2022-07-29T17:51:25;5.03;;;2.25;;
65096;SDS011;51686;46.758;4.356;2022-07-29T17:54:30;5.38;;;2.35;;
65096;SDS011;51686;46.758;4.356;2022-07-29T17:57:20;6.32;;;2.42;;
65096;SDS011;51686;46.758;4.356;2022-07-29T18:00:07;4.95;;;2.20;;
65096;SDS011;51686;46.758;4.356;2022-07-29T18:02:54;5.83;;;2.50;;
65096;SDS011;51686;46.758;4.356;2022-07-29T18:05:47;6.50;;;2.42;;
65096;SDS011;51686;46.758;4.356;2022-07-29T18:08:37;5.07;;;2.45;;
65096;SDS011;51686;46.758;4.356;2022-07-29T18:11:25;4.60;;;2.30;;
65096;SDS011;51686;46.758;4.356;2022-07-29T18:14:12;4.22;;;2.20;;
65096;SDS011;51686;46.758;4.356;2022-07-29T18:16:58;5.72;;;2.63;;
65096;SDS011;51686;46.758;4.356;2022-07-29T18:19:46;5.93;;;2.40;;
65096;SDS011;51686;46.758;4.356;2022-07-29T18:22:33;5.68;;;2.30;;
65096;SDS011;51686;46.758;4.356;2022-07-29T18:25:20;6.00;;;2.63;;